Time;durP1;ratioP1;P1;durP2;ratioP2;P2;SDS_P1;SDS_P2;PMS_P1;PMS_P2;Temp;Humidity;BMP_temperature;BMP_pressure;BME280_temperature;BME280_humidity;BME280_pressure;Samples;Min_cycle;Max_cycle;Signal;HPM_P1;HPM_P2
2023/06/03 00:00:03;;;;;;;8.40;3.47;;;15.40;99.90;;;;;;4996322;28;20026;-68
2023/06/03 00:02:29;;;;;;;10.05;3.25;;;15.30;99.90;;;;;;4996257;28;20030;-68
2023/06/03 00:04:55;;;;;;;6.95;2.15;;;15.30;99.90;;;;;;4996616;28;20116;-68
2023/06/03 00:07:20;;;;;;;9.30;2.92;;;15.20;99.90;;;;;;4997079;28;20070;-68
2023/06/03 00:09:46;;;;;;;8.57;3.08;;;15.10;99.90;;;;;;4996456;28;20033;-68
2023/06/03 00:12:11;;;;;;;9.38;3.08;;;14.90;99.90;;;;;;4996431;28;20023;-68
2023/06/03 00:14:37;;;;;;;10.13;3.20;;;15.10;99.90;;;;;;4996496;28;20034;-68
2023/06/03 00:17:03;;;;;;;7.93;2.65;;;15.10;99.90;;;;;;4999939;28;20026;-68
2023/06/03 00:19:28;;;;;;;5.45;2.80;;;14.90;99.90;;;;;;5000075;28;20027;-68
2023/06/03 00:21:54;;;;;;;6.30;2.75;;;14.80;99.90;;;;;;5000133;28;20033;-68
2023/06/03 00:24:22;;;;;;;8.20;2.50;;;14.90;99.90;;;;;;5000012;28;20030;-68
2023/06/03 00:26:51;;;;;;;5.75;2.50;;;15.00;99.90;;;;;;4999656;28;20027;-68
2023/06/03 00:29:19;;;;;;;4.97;3.10;;;15.00;99.90;;;;;;5000303;28;20105;-68
2023/06/03 00:31:45;;;;;;;5.20;2.42;;;14.90;99.90;;;;;;5023421;22;20038;-70
2023/06/03 00:34:11;;;;;;;9.05;2.58;;;14.70;99.90;;;;;;5000066;28;20022;-71
2023/06/03 00:36:38;;;;;;;8.73;2.67;;;14.80;99.90;;;;;;4999729;28;20056;-71
2023/06/03 00:39:04;;;;;;;7.18;2.60;;;14.70;99.90;;;;;;4999768;28;20022;-71
2023/06/03 00:41:29;;;;;;;9.93;3.10;;;14.60;99.90;;;;;;5000549;28;20034;-71
2023/06/03 00:43:55;;;;;;;11.60;3.90;;;14.70;99.90;;;;;;4999757;28;20030;-71
2023/06/03 00:46:21;;;;;;;10.48;2.90;;;14.80;99.90;;;;;;4999335;28;20027;-71
2023/06/03 00:48:47;;;;;;;6.70;2.83;;;14.70;99.90;;;;;;4999143;28;20037;-71
2023/06/03 00:51:14;;;;;;;11.68;2.85;;;14.70;99.90;;;;;;4999937;28;20080;-71
2023/06/03 00:53:40;;;;;;;6.50;2.30;;;14.70;99.90;;;;;;4999110;28;20073;-71
2023/06/03 00:56:06;;;;;;;7.53;2.53;;;14.60;99.90;;;;;;4999133;28;20022;-71
2023/06/03 00:58:32;;;;;;;4.68;2.92;;;14.70;99.90;;;;;;4999624;28;20019;-71
2023/06/03 01:00:58;;;;;;;8.35;2.67;;;14.80;99.90;;;;;;4999328;28;20044;-71
2023/06/03 01:03:24;;;;;;;13.45;3.35;;;14.80;99.90;;;;;;4999211;28;20022;-71
2023/06/03 01:06:32;;;;;;;4.68;2.35;;;14.80;99.90;;;;;;4998933;28;20026;-71
2023/06/03 01:09:04;;;;;;;10.18;2.72;;;14.60;99.90;;;;;;4984075;28;20034;-71
2023/06/03 01:11:42;;;;;;;4.75;2.47;;;14.60;99.90;;;;;;5000180;28;20031;-71
2023/06/03 01:14:18;;;;;;;15.45;3.95;;;14.60;99.90;;;;;;4998967;28;20030;-71
2023/06/03 01:16:47;;;;;;;4.72;2.15;;;14.60;99.90;;;;;;4999504;28;20053;-71
2023/06/03 01:19:49;;;;;;;7.50;3.25;;;14.60;99.90;;;;;;4998870;28;20054;-71
2023/06/03 01:22:16;;;;;;;9.17;2.77;;;14.70;99.90;;;;;;4998618;28;20029;-71
2023/06/03 01:24:48;;;;;;;4.93;1.95;;;14.70;99.90;;;;;;4999355;28;20268;-71
2023/06/03 01:27:14;;;;;;;;;;;14.50;99.90;;;;;;4998931;28;20099;-70
2023/06/03 01:29:41;;;;;;;5.32;2.10;;;14.60;99.90;;;;;;4999353;28;19913;-71
2023/06/03 01:32:11;;;;;;;6.93;1.80;;;14.60;99.90;;;;;;4998338;28;20037;-71
2023/06/03 01:34:37;;;;;;;5.80;2.35;;;14.70;99.90;;;;;;4999154;28;20056;-71
2023/06/03 01:37:03;;;;;;;3.22;2.08;;;14.70;99.90;;;;;;4998249;28;20026;-71
2023/06/03 01:39:30;;;;;;;4.93;2.17;;;14.70;99.90;;;;;;4998509;28;20130;-71
2023/06/03 01:41:56;;;;;;;5.43;2.30;;;14.70;99.90;;;;;;4998600;28;20026;-71
2023/06/03 01:44:21;;;;;;;3.30;1.75;;;14.60;99.90;;;;;;4999654;28;20037;-71
2023/06/03 01:46:47;;;;;;;6.82;2.45;;;14.70;99.90;;;;;;4998161;28;20065;-71
2023/06/03 01:49:13;;;;;;;4.68;1.70;;;14.60;99.90;;;;;;4998512;28;20101;-71
2023/06/03 01:51:39;;;;;;;5.28;1.88;;;14.50;99.90;;;;;;4998607;28;20045;-71
2023/06/03 01:54:04;;;;;;;7.45;1.88;;;14.60;99.90;;;;;;4998102;28;20023;-71
2023/06/03 01:56:30;;;;;;;7.85;2.10;;;14.50;99.90;;;;;;4997922;28;20022;-70
2023/06/03 01:58:56;;;;;;;2.67;1.48;;;14.60;99.90;;;;;;4998187;28;20026;-71
2023/06/03 02:01:21;;;;;;;9.88;1.83;;;14.60;99.90;;;;;;4998074;28;20022;-71
2023/06/03 02:03:47;;;;;;;5.68;1.35;;;14.50;99.90;;;;;;4997879;28;20049;-71
2023/06/03 02:06:14;;;;;;;3.22;1.30;;;14.50;99.90;;;;;;4997824;28;20129;-71
2023/06/03 02:08:39;;;;;;;5.68;1.73;;;14.50;99.90;;;;;;4998850;28;20032;-71
2023/06/03 02:11:05;;;;;;;2.22;1.50;;;14.60;99.90;;;;;;4997665;28;20018;-71
2023/06/03 02:13:30;;;;;;;6.30;2.45;;;14.60;99.90;;;;;;4997743;28;20062;-71
2023/06/03 02:15:56;;;;;;;4.35;1.73;;;14.60;99.90;;;;;;4998900;28;20037;-71
2023/06/03 02:18:21;;;;;;;5.05;1.60;;;14.30;99.90;;;;;;4997906;28;20022;-71
2023/06/03 02:20:47;;;;;;;1.33;1.17;;;14.30;99.90;;;;;;4997535;28;20026;-71
2023/06/03 02:23:13;;;;;;;4.97;1.88;;;14.30;99.90;;;;;;4997571;28;20034;-71
2023/06/03 02:25:38;;;;;;;2.67;1.48;;;14.20;99.90;;;;;;4997840;28;20023;-71
2023/06/03 02:28:04;;;;;;;3.10;1.70;;;14.10;99.90;;;;;;4997650;28;20029;-71
2023/06/03 02:30:30;;;;;;;3.92;1.67;;;14.20;99.90;;;;;;4997292;28;20098;-71
2023/06/03 02:32:55;;;;;;;2.55;1.40;;;14.20;99.90;;;;;;4998935;28;20035;-70
2023/06/03 02:35:21;;;;;;;4.70;1.60;;;14.20;99.90;;;;;;4998768;28;20022;-71
2023/06/03 02:37:47;;;;;;;3.00;1.55;;;14.20;99.90;;;;;;4997121;28;20026;-71
2023/06/03 02:40:12;;;;;;;3.28;1.80;;;14.20;99.90;;;;;;4997606;28;20042;-71
2023/06/03 02:42:38;;;;;;;4.47;1.25;;;14.10;99.90;;;;;;4997446;28;20073;-71
2023/06/03 02:45:05;;;;;;;2.85;1.55;;;14.00;99.90;;;;;;4997080;28;20030;-71
2023/06/03 02:47:30;;;;;;;4.00;1.40;;;13.90;99.90;;;;;;4997630;28;20050;-71
2023/06/03 02:49:56;;;;;;;7.15;1.55;;;13.80;99.90;;;;;;4997776;28;20065;-71
2023/06/03 02:52:22;;;;;;;4.97;1.40;;;13.90;99.90;;;;;;4997117;28;20022;-70
2023/06/03 02:54:49;;;;;;;4.85;1.55;;;14.00;99.90;;;;;;4997824;28;20025;-71
2023/06/03 02:57:14;;;;;;;2.42;1.23;;;14.00;99.90;;;;;;4997089;28;20026;-71
2023/06/03 02:59:40;;;;;;;4.90;1.40;;;13.90;99.90;;;;;;4997345;28;20026;-71
2023/06/03 03:02:06;;;;;;;6.93;1.30;;;14.00;99.90;;;;;;4996934;28;20026;-71
2023/06/03 03:04:33;;;;;;;3.88;1.30;;;13.80;99.90;;;;;;4996880;28;20029;-71
2023/06/03 03:07:01;;;;;;;7.65;1.52;;;13.80;99.90;;;;;;4997039;28;20092;-71
2023/06/03 03:09:27;;;;;;;5.10;1.00;;;13.80;99.90;;;;;;4996744;28;20026;-71
2023/06/03 03:11:52;;;;;;;2.28;1.23;;;13.70;99.90;;;;;;4996719;28;20026;-71
2023/06/03 03:14:18;;;;;;;2.90;1.25;;;13.70;99.90;;;;;;4996762;28;20054;-71
2023/06/03 03:16:43;;;;;;;4.78;1.70;;;13.70;99.90;;;;;;4997105;28;20022;-71
2023/06/03 03:19:09;;;;;;;7.85;1.40;;;13.70;99.90;;;;;;4996859;28;20022;-71
2023/06/03 03:21:35;;;;;;;1.95;1.50;;;13.70;99.90;;;;;;4997060;28;20093;-71
2023/06/03 03:24:01;;;;;;;8.65;1.45;;;13.80;99.90;;;;;;4996841;28;20053;-70
2023/06/03 03:26:28;;;;;;;2.78;1.20;;;13.60;99.90;;;;;;4996921;28;20026;-71
2023/06/03 03:28:54;;;;;;;6.60;1.50;;;13.60;99.90;;;;;;4998332;28;20026;-70
2023/06/03 03:31:20;;;;;;;2.50;1.15;;;13.50;99.90;;;;;;4999357;28;20114;-70
2023/06/03 03:33:48;;;;;;;2.47;1.20;;;13.50;99.90;;;;;;4997457;28;20042;-71
2023/06/03 03:36:22;;;;;;;4.32;1.20;;;13.50;99.90;;;;;;4996618;28;20073;-71
2023/06/03 03:39:00;;;;;;;3.15;1.40;;;13.50;99.90;;;;;;4997480;28;20046;-70
2023/06/03 03:41:26;;;;;;;2.30;1.20;;;13.50;99.90;;;;;;4997623;28;20030;-70
2023/06/03 03:43:51;;;;;;;2.47;1.23;;;13.50;99.90;;;;;;4996862;28;20030;-70
2023/06/03 03:46:18;;;;;;;4.70;1.38;;;13.50;99.90;;;;;;4997389;28;20078;-70
2023/06/03 03:48:45;;;;;;;3.47;1.35;;;13.50;99.90;;;;;;4996415;28;20030;-70
2023/06/03 03:51:12;;;;;;;3.20;1.00;;;13.60;99.90;;;;;;4998935;28;20026;-71
2023/06/03 03:53:43;;;;;;;2.55;1.10;;;13.60;99.90;;;;;;5000482;28;20033;-71
2023/06/03 03:56:08;;;;;;;2.17;0.90;;;13.50;99.90;;;;;;5000697;28;20027;-71
2023/06/03 03:58:37;;;;;;;3.15;1.05;;;13.50;99.90;;;;;;5000259;28;20126;-71
2023/06/03 04:01:22;;;;;;;5.68;0.80;;;13.30;99.90;;;;;;5000411;28;20030;-71
2023/06/03 04:03:49;;;;;;;3.85;1.02;;;13.30;99.90;;;;;;5000249;28;20023;-71
2023/06/03 04:06:29;;;;;;;2.05;0.95;;;13.50;99.90;;;;;;5000996;28;20029;-71
2023/06/03 04:08:54;;;;;;;3.10;1.02;;;13.50;99.90;;;;;;5001172;28;20018;-70
2023/06/03 04:11:26;;;;;;;2.38;0.82;;;13.50;99.90;;;;;;5000276;28;20084;-70
2023/06/03 04:13:52;;;;;;;;;;;13.50;99.90;;;;;;5000472;28;20046;-71
2023/06/03 04:16:44;;;;;;;2.53;1.13;;;13.50;99.90;;;;;;5000906;28;19913;-71
2023/06/03 04:19:20;;;;;;;8.55;1.27;;;13.60;99.90;;;;;;4999987;28;20026;-71
2023/06/03 04:21:47;;;;;;;3.45;0.98;;;13.40;99.90;;;;;;5000575;28;20034;-70
2023/06/03 04:24:13;;;;;;;2.45;0.93;;;13.40;99.90;;;;;;4999965;28;20027;-71
2023/06/03 04:26:41;;;;;;;4.97;0.95;;;13.20;99.90;;;;;;4999711;28;20037;-71
2023/06/03 04:29:06;;;;;;;4.40;0.90;;;13.30;99.90;;;;;;5001048;28;20022;-70
2023/06/03 04:31:32;;;;;;;3.13;0.80;;;13.30;99.90;;;;;;4999466;28;20031;-70
2023/06/03 04:33:57;;;;;;;2.80;0.90;;;13.40;99.90;;;;;;4999642;28;20015;-71
2023/06/03 04:36:23;;;;;;;1.33;0.63;;;13.40;99.90;;;;;;4999573;28;20049;-71
2023/06/03 04:38:48;;;;;;;3.15;0.90;;;13.40;99.90;;;;;;4999526;28;20022;-71
2023/06/03 04:41:15;;;;;;;1.75;0.80;;;13.40;99.90;;;;;;5000429;28;20109;-71
2023/06/03 04:43:43;;;;;;;4.90;0.75;;;13.50;99.90;;;;;;5000597;28;20033;-70
2023/06/03 04:46:09;;;;;;;1.80;0.70;;;13.60;99.90;;;;;;5000197;28;20022;-70
2023/06/03 04:48:45;;;;;;;4.07;1.42;;;13.60;99.90;;;;;;4999302;28;20026;-70
2023/06/03 04:51:11;;;;;;;2.50;1.02;;;13.60;99.90;;;;;;4999246;28;20048;-70
2023/06/03 04:53:37;;;;;;;1.20;0.63;;;13.60;99.90;;;;;;4999491;28;20034;-71
2023/06/03 04:56:04;;;;;;;2.95;0.77;;;13.70;99.90;;;;;;4999158;28;20101;-70
2023/06/03 04:58:30;;;;;;;3.13;0.90;;;13.50;99.90;;;;;;4999179;28;20018;-71
2023/06/03 05:00:56;;;;;;;2.63;0.93;;;13.60;99.90;;;;;;4999494;28;20030;-71
2023/06/03 05:03:22;;;;;;;1.45;0.70;;;13.60;99.90;;;;;;4999969;28;20080;-71
2023/06/03 05:05:48;;;;;;;2.60;1.00;;;13.40;99.90;;;;;;4999007;28;20026;-71
2023/06/03 05:08:14;;;;;;;4.20;0.70;;;13.50;99.90;;;;;;4999296;28;20037;-70
2023/06/03 05:10:39;;;;;;;5.50;0.80;;;13.50;99.90;;;;;;4998896;28;20026;-70
2023/06/03 05:13:06;;;;;;;4.22;0.90;;;13.50;99.90;;;;;;4998878;28;20121;-70
2023/06/03 05:15:33;;;;;;;1.15;0.73;;;13.40;99.90;;;;;;4999118;28;20026;-70
2023/06/03 05:18:02;;;;;;;4.20;0.70;;;13.50;99.90;;;;;;4998821;28;20057;-71
2023/06/03 05:20:28;;;;;;;2.38;0.80;;;13.60;99.90;;;;;;4999896;28;20088;-71
2023/06/03 05:22:54;;;;;;;3.13;0.80;;;13.60;99.90;;;;;;4998556;28;20026;-71
2023/06/03 05:25:20;;;;;;;2.58;0.93;;;13.50;99.90;;;;;;4999835;28;20030;-71
2023/06/03 05:27:46;;;;;;;3.00;0.77;;;13.50;99.90;;;;;;4999197;28;20027;-70
2023/06/03 05:30:12;;;;;;;2.78;0.73;;;13.60;99.90;;;;;;4998508;28;20088;-71
2023/06/03 05:32:39;;;;;;;1.27;0.73;;;13.70;99.90;;;;;;4999047;28;20061;-70
2023/06/03 05:35:05;;;;;;;2.10;0.70;;;13.50;99.90;;;;;;4999588;28;20022;-71
2023/06/03 05:37:31;;;;;;;5.30;1.00;;;13.50;99.90;;;;;;4998735;28;20021;-70
2023/06/03 05:39:56;;;;;;;1.48;0.60;;;13.60;99.90;;;;;;4998583;28;20025;-70
2023/06/03 05:42:22;;;;;;;3.13;0.63;;;13.60;99.90;;;;;;4998532;28;20053;-71
2023/06/03 05:44:47;;;;;;;5.45;1.17;;;13.70;99.90;;;;;;4998285;28;20114;-71
2023/06/03 05:47:13;;;;;;;1.60;0.93;;;13.80;99.90;;;;;;4998204;28;20026;-71
2023/06/03 05:49:38;;;;;;;5.65;0.88;;;14.00;99.90;;;;;;4998584;28;20037;-70
2023/06/03 05:52:04;;;;;;;1.40;0.70;;;13.90;99.90;;;;;;4998645;28;20018;-70
2023/06/03 05:54:30;;;;;;;3.53;0.85;;;14.20;99.90;;;;;;4997988;28;20023;-70
2023/06/03 05:56:56;;;;;;;8.65;1.10;;;14.10;99.90;;;;;;4998218;28;20029;-70
2023/06/03 05:59:22;;;;;;;1.10;0.90;;;14.10;99.90;;;;;;4998127;28;20031;-71
2023/06/03 06:01:48;;;;;;;2.70;0.95;;;14.20;99.90;;;;;;4997895;28;20084;-70
2023/06/03 06:04:13;;;;;;;9.27;1.00;;;14.20;99.90;;;;;;4999609;28;20035;-70
2023/06/03 06:06:39;;;;;;;4.82;0.82;;;14.30;99.90;;;;;;4998171;28;20018;-71
2023/06/03 06:09:04;;;;;;;2.85;1.10;;;14.40;99.90;;;;;;4998184;28;20033;-71
2023/06/03 06:11:30;;;;;;;4.85;1.00;;;14.60;99.90;;;;;;4998295;28;20034;-71
2023/06/03 06:13:55;;;;;;;3.40;0.85;;;14.70;99.90;;;;;;4997052;28;20023;-71
2023/06/03 06:16:21;;;;;;;2.85;0.90;;;14.70;99.90;;;;;;4997749;28;20029;-71
2023/06/03 06:18:48;;;;;;;5.00;0.80;;;14.70;99.90;;;;;;4997657;28;20139;-71
2023/06/03 06:21:15;;;;;;;1.58;0.65;;;14.70;99.90;;;;;;4997580;28;20026;-71
2023/06/03 06:23:44;;;;;;;3.03;0.90;;;14.60;99.90;;;;;;4997599;28;20019;-71
2023/06/03 06:26:14;;;;;;;2.40;0.77;;;14.80;99.90;;;;;;4997563;28;20029;-71
2023/06/03 06:28:40;;;;;;;7.25;0.88;;;14.70;99.90;;;;;;4997400;28;20026;-71
2023/06/03 06:31:06;;;;;;;3.17;0.90;;;14.80;99.90;;;;;;5021080;22;20088;-69
2023/06/03 06:33:34;;;;;;;3.17;0.85;;;14.90;99.90;;;;;;4997482;28;20046;-70
2023/06/03 06:36:41;;;;;;;4.28;1.17;;;14.90;99.90;;;;;;4997394;28;20076;-70
2023/06/03 06:39:24;;;;;;;3.35;0.90;;;15.10;99.90;;;;;;4997383;28;20046;-70
2023/06/03 06:41:50;;;;;;;3.60;1.25;;;15.20;99.90;;;;;;4998121;28;20030;-70
2023/06/03 06:44:16;;;;;;;5.53;1.17;;;15.20;99.90;;;;;;4998300;28;20033;-70
2023/06/03 06:46:41;;;;;;;5.32;0.90;;;15.40;99.90;;;;;;4997900;28;20056;-70
2023/06/03 06:49:08;;;;;;;2.30;0.80;;;15.50;99.90;;;;;;4997377;28;20033;-69
2023/06/03 06:51:35;;;;;;;1.63;0.90;;;15.60;99.90;;;;;;4997184;28;20033;-70
2023/06/03 06:54:01;;;;;;;2.05;0.90;;;15.60;99.90;;;;;;4997082;28;20022;-70
2023/06/03 06:56:26;;;;;;;2.80;1.25;;;15.80;99.90;;;;;;4997876;28;20049;-70
2023/06/03 06:58:52;;;;;;;4.97;0.80;;;15.90;99.90;;;;;;4997012;28;20033;-70
2023/06/03 07:01:18;;;;;;;0.80;0.73;;;15.90;99.90;;;;;;4997116;28;20018;-69
2023/06/03 07:03:43;;;;;;;4.57;0.95;;;15.90;99.90;;;;;;4996814;28;20029;-69
2023/06/03 07:06:10;;;;;;;1.85;0.88;;;15.90;99.90;;;;;;4998024;28;20029;-70
2023/06/03 07:08:35;;;;;;;2.33;0.98;;;16.00;99.90;;;;;;4996887;28;20049;-69
2023/06/03 07:11:03;;;;;;;4.82;1.08;;;16.10;99.90;;;;;;4997142;28;20034;-69
2023/06/03 07:13:29;;;;;;;2.75;0.80;;;16.00;99.90;;;;;;4996839;28;20076;-70
2023/06/03 07:15:55;;;;;;;6.75;1.10;;;16.00;99.90;;;;;;4996862;28;20027;-70
2023/06/03 07:18:21;;;;;;;3.70;1.05;;;16.20;99.90;;;;;;4997706;28;20022;-69
2023/06/03 07:20:47;;;;;;;1.45;1.10;;;16.30;99.90;;;;;;4997205;28;20026;-70
2023/06/03 07:23:21;;;;;;;3.03;1.05;;;16.30;99.90;;;;;;4996962;28;20129;-70
2023/06/03 07:25:51;;;;;;;7.63;1.33;;;16.20;99.90;;;;;;5001579;28;20104;-70
2023/06/03 07:28:20;;;;;;;5.30;1.25;;;16.30;99.90;;;;;;5000768;28;20022;-70
2023/06/03 07:30:47;;;;;;;2.67;1.00;;;16.50;99.90;;;;;;5000733;28;20026;-72
2023/06/03 07:33:37;;;;;;;2.25;1.10;;;16.50;99.90;;;;;;5000622;28;20027;-73
2023/06/03 07:36:03;;;;;;;2.47;1.20;;;16.60;99.90;;;;;;5001550;28;20023;-73
2023/06/03 07:38:56;;;;;;;1.38;0.95;;;16.70;99.90;;;;;;5000716;28;20029;-73
2023/06/03 07:41:41;;;;;;;3.45;1.30;;;16.80;99.90;;;;;;4984675;28;20026;-72
2023/06/03 07:44:08;;;;;;;4.38;1.20;;;16.90;99.90;;;;;;5000783;28;20094;-73
2023/06/03 07:46:57;;;;;;;3.22;0.93;;;16.90;99.90;;;;;;5001371;28;20110;-73
2023/06/03 07:49:23;;;;;;;5.50;1.05;;;16.90;99.90;;;;;;4997682;28;20058;-74
2023/06/03 07:51:50;;;;;;;3.17;0.90;;;17.10;99.90;;;;;;5000737;28;20026;-73
2023/06/03 07:54:16;;;;;;;2.03;1.17;;;17.20;99.90;;;;;;5000370;28;20057;-73
2023/06/03 07:56:43;;;;;;;1.40;0.80;;;17.30;99.90;;;;;;5000397;28;20018;-74
2023/06/03 07:59:10;;;;;;;2.83;1.00;;;17.30;99.90;;;;;;5000878;28;20033;-73
2023/06/03 08:01:36;;;;;;;3.40;1.20;;;17.40;99.90;;;;;;5001146;28;20054;-73
2023/06/03 08:04:20;;;;;;;2.50;1.13;;;17.50;99.90;;;;;;5000523;28;20053;-72
2023/06/03 08:06:47;;;;;;;2.15;1.15;;;17.60;99.90;;;;;;5000105;28;20027;-71
2023/06/03 08:09:26;;;;;;;5.35;1.52;;;17.70;99.90;;;;;;5000378;28;20077;-71
2023/06/03 08:11:52;;;;;;;2.08;0.95;;;17.90;99.90;;;;;;5000933;28;20018;-71
2023/06/03 08:14:23;;;;;;;3.88;1.10;;;18.00;99.90;;;;;;5000333;28;20026;-71
2023/06/03 08:16:49;;;;;;;;;;;18.00;99.90;;;;;;5000862;28;20029;-71
2023/06/03 08:19:16;;;;;;;2.53;1.23;;;18.00;99.90;;;;;;5000440;28;19910;-71
2023/06/03 08:21:44;;;;;;;4.53;1.10;;;18.00;99.90;;;;;;4999747;28;20026;-71
2023/06/03 08:24:10;;;;;;;5.05;0.90;;;18.00;99.90;;;;;;5001013;28;20068;-72
2023/06/03 08:26:38;;;;;;;2.80;1.10;;;18.10;99.90;;;;;;5000072;28;20121;-71
2023/06/03 08:29:04;;;;;;;7.38;1.33;;;18.20;99.90;;;;;;5000559;28;20030;-72
2023/06/03 08:31:33;;;;;;;3.55;0.98;;;18.50;99.90;;;;;;4999522;28;20042;-71
2023/06/03 08:34:00;;;;;;;2.72;1.30;;;18.60;99.90;;;;;;4999627;28;20026;-71
2023/06/03 08:36:26;;;;;;;4.88;1.27;;;18.90;99.90;;;;;;4999006;28;20045;-71
2023/06/03 08:38:52;;;;;;;3.70;1.35;;;18.90;99.90;;;;;;4999492;28;20018;-71
2023/06/03 08:41:18;;;;;;;2.70;1.27;;;18.90;99.90;;;;;;4999450;28;20034;-71
2023/06/03 08:43:51;;;;;;;6.10;1.10;;;19.20;99.90;;;;;;5000309;28;20025;-71
2023/06/03 08:46:29;;;;;;;19.02;1.38;;;19.10;99.90;;;;;;5000342;28;20027;-71
2023/06/03 08:49:07;;;;;;;6.55;1.65;;;19.00;99.90;;;;;;5000256;28;20088;-70
2023/06/03 08:51:42;;;;;;;4.72;1.40;;;19.10;99.90;;;;;;4999547;28;20033;-71
2023/06/03 08:54:13;;;;;;;3.00;1.10;;;19.10;99.90;;;;;;4999357;28;20027;-71
2023/06/03 08:56:53;;;;;;;3.55;1.13;;;19.10;99.90;;;;;;4999224;28;20049;-70
2023/06/03 08:59:24;;;;;;;2.65;1.30;;;19.20;99.90;;;;;;5000019;28;20031;-71
2023/06/03 09:01:54;;;;;;;7.07;1.80;;;19.30;99.90;;;;;;4999325;28;20097;-71
2023/06/03 09:04:21;;;;;;;3.03;1.27;;;19.70;99.90;;;;;;4999230;28;20033;-71
2023/06/03 09:06:49;;;;;;;5.43;1.42;;;19.70;99.90;;;;;;4999218;28;20030;-69
2023/06/03 09:09:15;;;;;;;3.05;1.30;;;19.70;99.90;;;;;;4998888;28;20027;-70
2023/06/03 09:11:42;;;;;;;1.70;1.00;;;19.60;99.90;;;;;;4998974;28;20029;-69
2023/06/03 09:14:09;;;;;;;3.80;1.30;;;19.70;99.90;;;;;;4999248;28;20026;-70
2023/06/03 09:16:36;;;;;;;7.47;1.23;;;19.90;99.90;;;;;;5000169;28;20027;-70
2023/06/03 09:19:02;;;;;;;2.78;1.45;;;19.90;99.90;;;;;;4998848;28;20030;-70
2023/06/03 09:21:29;;;;;;;7.15;1.40;;;20.00;99.90;;;;;;4998684;28;20117;-69
2023/06/03 09:23:55;;;;;;;4.32;1.63;;;20.10;99.90;;;;;;4999568;28;20029;-70
2023/06/03 09:26:21;;;;;;;4.72;1.20;;;20.10;99.60;;;;;;4998923;28;20049;-70
2023/06/03 09:28:47;;;;;;;3.58;1.50;;;20.20;99.90;;;;;;4998642;28;20022;-70
2023/06/03 09:31:13;;;;;;;2.00;1.20;;;20.30;99.50;;;;;;4998268;28;20034;-70
2023/06/03 09:33:40;;;;;;;1.90;1.05;;;20.40;99.40;;;;;;4999285;28;20041;-70
2023/06/03 09:36:06;;;;;;;2.60;1.30;;;20.60;98.70;;;;;;4998441;28;20019;-71
2023/06/03 09:38:50;;;;;;;3.15;1.30;;;20.50;99.90;;;;;;4998354;28;20026;-71
2023/06/03 09:41:19;;;;;;;6.97;1.50;;;20.50;99.60;;;;;;4998646;28;20026;-71
2023/06/03 09:43:55;;;;;;;3.33;1.55;;;20.80;98.80;;;;;;4999434;28;20030;-70
2023/06/03 09:46:21;;;;;;;3.25;1.63;;;20.90;97.20;;;;;;4998387;28;20022;-71
2023/06/03 09:48:47;;;;;;;2.72;1.45;;;21.30;97.80;;;;;;4998460;28;20026;-71
2023/06/03 09:51:12;;;;;;;7.85;1.52;;;21.20;97.00;;;;;;4998282;28;20030;-71
2023/06/03 09:53:39;;;;;;;5.57;1.48;;;21.20;97.10;;;;;;4998216;28;20027;-71
2023/06/03 09:56:25;;;;;;;15.90;5.43;;;21.50;97.20;;;;;;4997995;28;20026;-71
2023/06/03 09:58:53;;;;;;;7.78;2.10;;;21.80;96.10;;;;;;4998109;28;20105;-71
2023/06/03 10:01:30;;;;;;;5.10;1.50;;;21.80;97.30;;;;;;4998051;28;20049;-71
2023/06/03 10:03:59;;;;;;;2.55;1.30;;;21.60;95.50;;;;;;4998305;28;20069;-71
2023/06/03 10:06:25;;;;;;;4.00;1.58;;;21.60;96.00;;;;;;4998219;28;20030;-71
2023/06/03 10:08:50;;;;;;;2.63;1.50;;;21.90;95.30;;;;;;4997864;28;20117;-71
2023/06/03 10:11:16;;;;;;;9.15;1.60;;;22.10;94.00;;;;;;4997751;28;20033;-71
2023/06/03 10:13:41;;;;;;;3.53;1.48;;;22.00;93.40;;;;;;4998024;28;20022;-70
2023/06/03 10:16:11;;;;;;;3.00;1.38;;;21.90;94.70;;;;;;4997816;28;20023;-71
2023/06/03 10:18:39;;;;;;;4.00;1.48;;;22.20;94.70;;;;;;4998096;28;20037;-71
2023/06/03 10:21:10;;;;;;;3.15;1.70;;;22.40;91.90;;;;;;4997846;28;20077;-71
2023/06/03 10:23:38;;;;;;;4.40;1.30;;;22.50;92.50;;;;;;4998206;28;20038;-71
2023/06/03 10:26:05;;;;;;;2.40;1.50;;;22.60;92.00;;;;;;4997730;28;20089;-71
2023/06/03 10:28:31;;;;;;;2.63;1.42;;;22.30;92.30;;;;;;4997747;28;20026;-71
2023/06/03 10:30:59;;;;;;;5.85;1.42;;;22.50;91.60;;;;;;4997215;28;20089;-71
2023/06/03 10:33:25;;;;;;;4.25;1.77;;;22.70;91.10;;;;;;4998365;28;20097;-71
2023/06/03 10:35:51;;;;;;;4.40;1.60;;;22.70;90.40;;;;;;4997717;28;20080;-71
2023/06/03 10:38:17;;;;;;;6.85;1.92;;;22.80;90.30;;;;;;4998213;28;20022;-71
2023/06/03 10:40:44;;;;;;;6.57;1.67;;;23.10;88.80;;;;;;4997444;28;20026;-71
2023/06/03 10:43:10;;;;;;;2.75;1.58;;;23.10;89.00;;;;;;4998612;28;20030;-70
2023/06/03 10:45:36;;;;;;;8.88;1.98;;;23.20;89.10;;;;;;4997343;28;20065;-71
2023/06/03 10:48:07;;;;;;;6.30;2.05;;;23.60;88.30;;;;;;4997277;28;20065;-71
2023/06/03 10:51:11;;;;;;;3.35;1.55;;;23.80;87.00;;;;;;4997196;28;20113;-71
2023/06/03 10:53:58;;;;;;;5.82;1.88;;;24.00;86.40;;;;;;4997397;28;20023;-70
2023/06/03 10:56:41;;;;;;;4.53;1.40;;;24.00;82.90;;;;;;4997472;28;20022;-71
2023/06/03 10:59:11;;;;;;;9.77;1.60;;;24.00;83.70;;;;;;4996810;28;20018;-71
2023/06/03 11:01:56;;;;;;;2.83;1.50;;;23.50;85.20;;;;;;4996998;28;20080;-71
2023/06/03 11:04:21;;;;;;;5.88;1.67;;;23.90;85.90;;;;;;4997567;28;20264;-71
2023/06/03 11:06:47;;;;;;;3.47;1.17;;;24.30;85.20;;;;;;4996883;28;20022;-70
2023/06/03 11:09:16;;;;;;;4.70;1.60;;;24.40;82.20;;;;;;4997255;28;20019;-71
2023/06/03 11:11:41;;;;;;;3.83;1.58;;;24.60;82.70;;;;;;4996775;28;20057;-71
2023/06/03 11:14:07;;;;;;;4.03;1.50;;;24.90;81.60;;;;;;4996931;28;20046;-71
2023/06/03 11:17:05;;;;;;;4.60;1.60;;;25.10;84.10;;;;;;4997279;28;20029;-71
2023/06/03 11:19:46;;;;;;;4.53;1.60;;;25.40;79.20;;;;;;4997787;28;20023;-71
2023/06/03 11:22:31;;;;;;;3.88;1.63;;;25.30;76.90;;;;;;4996746;28;20026;-71
2023/06/03 11:24:58;;;;;;;3.10;1.27;;;25.30;76.00;;;;;;4996795;28;20062;-71
2023/06/03 11:27:25;;;;;;;3.00;1.60;;;25.30;75.90;;;;;;4996737;28;20026;-71
2023/06/03 11:29:52;;;;;;;4.03;1.70;;;25.40;75.90;;;;;;4996645;28;20124;-71
2023/06/03 11:32:22;;;;;;;2.72;1.48;;;25.40;74.30;;;;;;4996649;28;20114;-71
2023/06/03 11:34:50;;;;;;;2.80;1.42;;;25.20;73.50;;;;;;4996974;28;20030;-71
2023/06/03 11:37:20;;;;;;;3.40;1.63;;;24.90;73.60;;;;;;4997230;28;20030;-70
2023/06/03 11:40:18;;;;;;;3.42;1.50;;;24.60;74.40;;;;;;4996880;28;20057;-71
2023/06/03 11:42:47;;;;;;;5.07;2.03;;;24.60;73.30;;;;;;4996510;28;20018;-70
2023/06/03 11:45:18;;;;;;;4.25;1.60;;;25.10;74.10;;;;;;4997516;28;20031;-71
2023/06/03 11:47:54;;;;;;;2.42;1.48;;;25.40;72.30;;;;;;4996683;28;20022;-71
2023/06/03 11:50:24;;;;;;;5.80;1.90;;;26.00;75.60;;;;;;4997667;28;20022;-70
2023/06/03 11:52:51;;;;;;;3.00;1.52;;;26.30;72.50;;;;;;4996471;28;20026;-71
2023/06/03 11:55:30;;;;;;;4.70;1.85;;;26.20;70.40;;;;;;4996424;28;20060;-71
2023/06/03 11:58:22;;;;;;;7.70;2.05;;;26.30;69.40;;;;;;4997279;28;20026;-70
2023/06/03 12:00:48;;;;;;;4.72;1.80;;;26.20;69.20;;;;;;4997207;28;20027;-71
2023/06/03 12:03:14;;;;;;;8.60;2.20;;;25.50;70.70;;;;;;4996571;28;20122;-70
2023/06/03 12:05:53;;;;;;;3.20;1.60;;;25.70;70.90;;;;;;4996324;28;20039;-71
2023/06/03 12:08:18;;;;;;;4.35;1.88;;;25.90;70.20;;;;;;4996668;28;20113;-70
2023/06/03 12:10:44;;;;;;;1.77;1.42;;;26.20;68.60;;;;;;4996493;28;20246;-71
2023/06/03 12:13:10;;;;;;;6.40;1.50;;;26.20;68.30;;;;;;5000173;28;20018;-71
2023/06/03 12:15:48;;;;;;;4.70;1.90;;;26.20;69.10;;;;;;5000941;28;20170;-71
2023/06/03 12:18:13;;;;;;;2.58;1.48;;;26.20;69.20;;;;;;5000083;28;20026;-70
2023/06/03 12:20:39;;;;;;;3.72;1.52;;;26.30;72.20;;;;;;4999848;28;20121;-70
2023/06/03 12:23:05;;;;;;;10.85;2.17;;;26.20;66.90;;;;;;5000191;28;20065;-69
2023/06/03 12:25:33;;;;;;;3.30;1.67;;;26.50;70.90;;;;;;4999838;28;20109;-69
2023/06/03 12:28:28;;;;;;;4.22;1.67;;;25.90;67.70;;;;;;4999739;28;20054;-70
2023/06/03 12:30:54;;;;;;;5.80;1.42;;;26.30;67.50;;;;;;5000135;28;20026;-70
2023/06/03 12:33:19;;;;;;;3.63;1.63;;;26.30;67.10;;;;;;5024098;22;20050;-70
2023/06/03 12:35:56;;;;;;;3.20;1.55;;;26.00;72.50;;;;;;5000613;28;20027;-70
2023/06/03 12:38:21;;;;;;;2.22;1.30;;;26.10;67.00;;;;;;5000014;28;20045;-71
2023/06/03 12:40:47;;;;;;;5.90;1.88;;;25.20;70.20;;;;;;5000845;28;20026;-71
2023/06/03 12:43:22;;;;;;;5.20;1.70;;;25.30;69.40;;;;;;4999512;28;20057;-71
2023/06/03 12:45:48;;;;;;;3.65;2.03;;;25.10;72.40;;;;;;4999276;28;20034;-72
2023/06/03 12:48:30;;;;;;;5.18;1.80;;;25.30;67.40;;;;;;4999532;28;20098;-70
2023/06/03 12:50:56;;;;;;;2.70;1.95;;;25.50;67.60;;;;;;5000174;28;20034;-70
2023/06/03 12:53:22;;;;;;;4.30;1.55;;;25.60;66.90;;;;;;5000383;28;20027;-72
2023/06/03 12:55:48;;;;;;;4.60;1.73;;;25.40;68.30;;;;;;5000294;28;20030;-71